Time;durP1;ratioP1;P1;durP2;ratioP2;P2;SDS_P1;SDS_P2;PMS_P1;PMS_P2;Temp;Humidity;BMP_temperature;BMP_pressure;BME280_temperature;BME280_humidity;BME280_pressure;Samples;Min_cycle;Max_cycle;Signal;HPM_P1;HPM_P2
2022/01/10 00:01:52;;;;;;;;;;;;;;;2.67;nan;99972.53;5027947;28;20378;-84
2022/01/10 00:04:17;;;;;;;;;;;;;;;2.72;nan;99973.03;5032716;28;20328;-84
2022/01/10 00:06:42;;;;;;;;;;;;;;;2.71;nan;99973.97;5034651;28;19975;-84
2022/01/10 00:09:07;;;;;;;;;;;;;;;2.68;nan;99976.81;5034980;28;19932;-84
2022/01/10 00:11:33;;;;;;;;;;;;;;;2.71;nan;99980.97;5035598;28;20399;-84
2022/01/10 00:13:58;;;;;;;;;;;;;;;2.72;nan;99983.47;5034584;28;19927;-85
2022/01/10 00:16:24;;;;;;;;;;;;;;;2.72;nan;99991.31;5032577;28;19923;-85
2022/01/10 00:18:49;;;;;;;;;;;;;;;2.72;nan;99996.53;5033438;28;19928;-85
2022/01/10 00:21:15;;;;;;;;;;;;;;;2.71;nan;100002.69;5035295;28;19983;-85
2022/01/10 00:23:41;;;;;;;;;;;;;;;2.70;nan;100001.03;5034972;28;19981;-85
2022/01/10 00:26:06;;;;;;;;;;;;;;;2.72;nan;100009.56;5033168;28;20373;-84
2022/01/10 00:28:31;;;;;;;;;;;;;;;2.70;nan;100010.66;5021805;28;19925;-85
2022/01/10 00:30:56;;;;;;;;;;;;;;;2.70;nan;100008.84;5034294;28;19924;-86
2022/01/10 00:33:21;;;;;;;;;;;;;;;2.68;nan;100008.13;5034032;28;19921;-85
2022/01/10 00:35:47;;;;;;;;;;;;;;;2.67;nan;100001.25;5032814;28;20015;-85
2022/01/10 00:38:12;;;;;;;;;;;;;;;2.64;nan;100003.25;5030082;28;19925;-84
2022/01/10 00:40:39;;;;;;;;;;;;;;;2.57;nan;100005.47;5036032;28;19929;-85
2022/01/10 00:43:05;;;;;;;;;;;;;;;2.60;nan;100015.72;5033412;28;20008;-85
2022/01/10 00:45:30;;;;;;;;;;;;;;;2.64;nan;100018.91;5032948;28;20411;-84
2022/01/10 00:47:57;;;;;;;;;;;;;;;2.64;nan;100024.13;5033472;28;19921;-85
2022/01/10 00:50:24;;;;;;;;;;;;;;;2.62;nan;100029.50;5024359;28;20203;-84
2022/01/10 00:52:49;;;;;;;;;;;;;;;2.64;nan;100034.56;5035261;28;19928;-85
2022/01/10 00:55:14;;;;;;;;;;;;;;;2.71;nan;100033.19;5036387;28;19929;-85
2022/01/10 00:57:40;;;;;;;;;;;;;;;2.68;nan;100039.47;5035608;28;19925;-85
2022/01/10 01:00:06;;;;;;;;;;;;;;;2.67;nan;100035.19;5034150;28;19921;-85
2022/01/10 01:02:32;;;;;;;;;;;;;;;2.64;nan;100040.63;5024728;28;19948;-84
2022/01/10 01:05:01;;;;;;;;;;;;;;;2.65;nan;100050.13;5033108;28;20378;-85
2022/01/10 01:07:27;;;;;;;;;;;;;;;2.62;nan;100052.97;5046188;28;19925;-85
2022/01/10 01:10:04;;;;;;;;;;;;;;;2.66;nan;100058.78;5037293;28;19948;-85
2022/01/10 01:12:43;;;;;;;;;;;;;;;2.70;nan;100061.06;5034577;28;19921;-84
2022/01/10 01:15:19;;;;;;;;;;;;;;;2.71;nan;100059.28;5032139;28;19921;-84
2022/01/10 01:18:00;;;;;;;;;;;;;;;2.70;nan;100066.28;5020549;28;19925;-84
2022/01/10 01:20:42;;;;;;;;;;;;;;;2.66;nan;100069.22;5032665;28;19921;-84
2022/01/10 01:25:59;;;;;;;;;;;;;;;2.68;nan;100069.97;5030361;28;19928;-85
2022/01/10 01:28:24;;;;;;;;;;;;;;;2.68;nan;100075.19;5029478;28;19925;-85
2022/01/10 01:30:50;;;;;;;;;;;;;;;2.62;nan;100084.31;5036429;28;19944;-84
2022/01/10 01:33:16;;;;;;;;;;;;;;;2.61;nan;100081.78;5035243;28;19921;-84
2022/01/10 01:35:42;;;;;;;;;;;;;;;2.58;nan;100087.25;5037537;28;19927;-85
2022/01/10 01:38:08;;;;;;;;;;;;;;;2.57;nan;100091.59;5035764;28;20004;-85
2022/01/10 01:40:34;;;;;;;;;;;;;;;2.59;nan;100101.94;5037319;28;19921;-84
2022/01/10 01:42:59;;;;;;;;;;;;;;;2.63;nan;100112.06;5039065;28;19928;-84
2022/01/10 01:45:35;;;;;;;;;;;;;;;2.65;nan;100104.13;5036194;28;19921;-84
2022/01/10 01:48:00;;;;;;;;;;;;;;;2.65;nan;100107.56;5037077;28;19917;-84
2022/01/10 01:50:26;;;;;;;;;;;;;;;2.67;nan;100107.44;5036367;28;19928;-85
2022/01/10 01:52:51;;;;;;;;;;;;;;;2.66;nan;100108.38;5036392;28;19943;-84
2022/01/10 01:55:16;;;;;;;;;;;;;;;2.61;nan;100113.13;5034223;28;20401;-85
2022/01/10 01:57:42;;;;;;;;;;;;;;;2.57;nan;100119.50;5020283;28;19924;-85
2022/01/10 02:00:07;;;;;;;;;;;;;;;2.54;nan;100126.59;5033187;28;20402;-84
2022/01/10 02:02:32;;;;;;;;;;;;;;;2.53;nan;100121.50;5037511;28;19928;-85
2022/01/10 02:04:58;;;;;;;;;;;;;;;2.51;nan;100126.00;5035626;28;19921;-85
2022/01/10 02:07:23;;;;;;;;;;;;;;;2.51;nan;100126.00;5035746;28;19974;-84
2022/01/10 02:09:48;;;;;;;;;;;;;;;2.54;nan;100134.41;5031850;28;19988;-85
2022/01/10 02:12:13;;;;;;;;;;;;;;;2.56;nan;100136.94;5033668;28;19961;-85
2022/01/10 02:14:41;;;;;;;;;;;;;;;2.55;nan;100135.25;5035640;28;19956;-85
2022/01/10 02:17:07;;;;;;;;;;;;;;;2.54;nan;100139.66;5035374;28;19963;-85
2022/01/10 02:19:32;;;;;;;;;;;;;;;2.55;nan;100141.31;5036194;28;20029;-84
2022/01/10 02:21:57;;;;;;;;;;;;;;;2.61;nan;100147.06;5036737;28;19976;-85
2022/01/10 02:24:23;;;;;;;;;;;;;;;2.65;nan;100151.94;5032974;28;19945;-85
2022/01/10 02:26:49;;;;;;;;;;;;;;;2.67;nan;100151.81;5040230;28;20255;-85
2022/01/10 02:29:15;;;;;;;;;;;;;;;2.68;nan;100156.09;5036924;28;20211;-85
2022/01/10 02:31:40;;;;;;;;;;;;;;;2.65;nan;100164.16;5035878;28;19932;-85
2022/01/10 02:34:06;;;;;;;;;;;;;;;2.61;nan;100154.88;5035340;28;19925;-85
2022/01/10 02:36:31;;;;;;;;;;;;;;;2.61;nan;100166.16;5031396;28;19921;-85
2022/01/10 02:38:58;;;;;;;;;;;;;;;2.62;nan;100162.63;5031195;28;19925;-85
2022/01/10 02:41:31;;;;;;;;;;;;;;;2.64;nan;100171.13;5035480;28;19929;-85
2022/01/10 02:43:57;;;;;;;;;;;;;;;2.65;nan;100172.00;5034806;28;19925;-84
2022/01/10 02:46:22;;;;;;;;;;;;;;;2.65;nan;100172.81;5036874;28;20088;-84
2022/01/10 02:48:48;;;;;;;;;;;;;;;2.67;nan;100180.53;5038402;28;20023;-85
2022/01/10 02:51:13;;;;;;;;;;;;;;;2.62;nan;100185.25;5046509;28;20382;-85
2022/01/10 02:53:38;;;;;;;;;;;;;;;2.60;nan;100187.13;5041910;28;19918;-85
2022/01/10 02:56:04;;;;;;;;;;;;;;;2.58;nan;100184.66;5036394;28;19921;-85
2022/01/10 02:58:29;;;;;;;;;;;;;;;2.61;nan;100189.63;5035176;28;19921;-85
2022/01/10 03:00:54;;;;;;;;;;;;;;;2.65;nan;100187.66;5034434;28;19921;-85
2022/01/10 03:03:20;;;;;;;;;;;;;;;2.64;nan;100194.63;5029254;28;19918;-85
2022/01/10 03:05:45;;;;;;;;;;;;;;;2.66;nan;100204.97;5026608;28;19928;-85
2022/01/10 03:08:10;;;;;;;;;;;;;;;2.67;nan;100201.41;5035506;28;19944;-84
2022/01/10 03:10:35;;;;;;;;;;;;;;;2.70;nan;100209.03;5036088;28;19921;-85
2022/01/10 03:13:01;;;;;;;;;;;;;;;2.68;nan;100211.75;5035369;28;19975;-84
2022/01/10 03:15:27;;;;;;;;;;;;;;;2.70;nan;100220.31;5036505;28;19932;-84
2022/01/10 03:17:52;;;;;;;;;;;;;;;2.68;nan;100223.97;5033741;28;19921;-85
2022/01/10 03:20:17;;;;;;;;;;;;;;;2.65;nan;100221.59;5035059;28;19917;-85
2022/01/10 03:22:42;;;;;;;;;;;;;;;2.59;nan;100230.66;5035947;28;20345;-85
2022/01/10 03:25:08;;;;;;;;;;;;;;;2.59;nan;100235.91;5035352;28;19921;-85
2022/01/10 03:27:33;;;;;;;;;;;;;;;2.58;nan;100236.84;5023472;28;19921;-85
2022/01/10 03:29:58;;;;;;;;;;;;;;;2.59;nan;100245.50;5027488;28;19928;-86
2022/01/10 03:32:24;;;;;;;;;;;;;;;2.54;nan;100238.81;5036201;28;20015;-84
2022/01/10 03:34:50;;;;;;;;;;;;;;;2.50;nan;100247.84;5035769;28;19921;-85
2022/01/10 03:37:15;;;;;;;;;;;;;;;2.49;nan;100256.59;5034595;28;20122;-85
2022/01/10 03:39:40;;;;;;;;;;;;;;;2.48;nan;100254.06;5036696;28;19921;-85
2022/01/10 03:42:05;;;;;;;;;;;;;;;2.52;nan;100265.97;5035017;28;20307;-85
2022/01/10 03:44:31;;;;;;;;;;;;;;;2.55;nan;100260.53;5036517;28;19925;-85
2022/01/10 03:46:56;;;;;;;;;;;;;;;2.60;nan;100261.06;5033231;28;20421;-85
2022/01/10 03:49:22;;;;;;;;;;;;;;;2.58;nan;100267.34;5033112;28;19925;-84
2022/01/10 03:51:47;;;;;;;;;;;;;;;2.54;nan;100274.53;5026310;28;20056;-85
2022/01/10 03:54:13;;;;;;;;;;;;;;;2.54;nan;100275.38;5021044;28;19928;-85
2022/01/10 03:56:38;;;;;;;;;;;;;;;2.55;nan;100273.59;5036027;28;19993;-85
2022/01/10 03:59:04;;;;;;;;;;;;;;;2.57;nan;100274.31;5035398;28;19921;-84
2022/01/10 04:01:29;;;;;;;;;;;;;;;2.56;nan;100283.09;5036619;28;20019;-85
2022/01/10 04:03:55;;;;;;;;;;;;;;;2.54;nan;100291.03;5034955;28;20008;-85
2022/01/10 04:06:20;;;;;;;;;;;;;;;2.52;nan;100294.69;5021927;28;19995;-85
2022/01/10 04:08:45;;;;;;;;;;;;;;;2.51;nan;100295.63;5034843;28;19929;-85
2022/01/10 04:11:11;;;;;;;;;;;;;;;2.53;nan;100304.19;5033927;28;20324;-85
2022/01/10 04:13:36;;;;;;;;;;;;;;;2.57;nan;100299.59;5034071;28;19925;-84
2022/01/10 04:16:01;;;;;;;;;;;;;;;2.52;nan;100305.13;5034267;28;19917;-84
2022/01/10 04:18:27;;;;;;;;;;;;;;;2.48;nan;100304.50;5034952;28;20500;-85
2022/01/10 04:20:52;;;;;;;;;;;;;;;2.48;nan;100306.25;5016919;28;19925;-84
2022/01/10 04:23:17;;;;;;;;;;;;;;;2.52;nan;100308.56;5016992;28;20003;-84
2022/01/10 04:25:43;;;;;;;;;;;;;;;2.51;nan;100308.69;5035072;28;19928;-84
2022/01/10 04:28:08;;;;;;;;;;;;;;;2.53;nan;100315.47;5034005;28;19921;-85
2022/01/10 04:30:34;;;;;;;;;;;;;;;2.51;nan;100321.75;4995959;28;20377;-84
2022/01/10 04:33:01;;;;;;;;;;;;;;;2.52;nan;100326.84;5015539;28;19918;-85
2022/01/10 04:35:26;;;;;;;;;;;;;;;2.55;nan;100328.41;4996733;28;20020;-85
2022/01/10 04:37:52;;;;;;;;;;;;;;;2.54;nan;100329.34;5015773;28;19961;-85
2022/01/10 04:40:17;;;;;;;;;;;;;;;2.55;nan;100331.88;5012772;28;20295;-84
2022/01/10 04:42:43;;;;;;;;;;;;;;;2.58;nan;100332.59;5015209;28;20016;-85
2022/01/10 04:45:08;;;;;;;;;;;;;;;2.59;nan;100344.69;5015865;28;19925;-85
2022/01/10 04:47:34;;;;;;;;;;;;;;;2.59;nan;100349.91;5010319;28;20457;-86
2022/01/10 04:50:35;;;;;;;;;;;;;;;2.60;nan;100346.34;4998552;28;20008;-85
2022/01/10 04:52:53;;;;;;;;;;;;;;;2.59;nan;100358.56;5023994;28;19928;-85
2022/01/10 04:55:19;;;;;;;;;;;;;;;2.58;nan;100363.91;4998921;28;19921;-85
2022/01/10 04:57:44;;;;;;;;;;;;;;;2.52;nan;100360.75;5016390;28;19922;-85
2022/01/10 05:00:12;;;;;;;;;;;;;;;2.51;nan;100369.53;5013894;28;19981;-84
2022/01/10 05:02:37;;;;;;;;;;;;;;;2.53;nan;100374.66;5020443;28;19963;-84
2022/01/10 05:05:03;;;;;;;;;;;;;;;2.51;nan;100371.31;5031533;28;19917;-85
2022/01/10 05:07:28;;;;;;;;;;;;;;;2.50;nan;100378.31;4993490;28;19976;-86
2022/01/10 05:09:53;;;;;;;;;;;;;;;2.51;nan;100384.38;5018848;28;19949;-85
2022/01/10 05:12:20;;;;;;;;;;;;;;;2.51;nan;100382.59;5000783;28;19925;-85
2022/01/10 05:14:46;;;;;;;;;;;;;;;2.49;nan;100381.03;5001443;28;19928;-85
2022/01/10 05:17:11;;;;;;;;;;;;;;;2.46;nan;100396.91;5000989;28;19921;-85
2022/01/10 05:19:36;;;;;;;;;;;;;;;2.44;nan;100396.16;5013711;28;20409;-85
2022/01/10 05:22:02;;;;;;;;;;;;;;;2.37;nan;100397.50;5030910;28;20432;-85
2022/01/10 05:24:27;;;;;;;;;;;;;;;2.31;nan;100404.81;5030903;28;19921;-86
2022/01/10 05:26:53;;;;;;;;;;;;;;;2.37;nan;100414.00;5029854;28;19944;-85
2022/01/10 05:29:19;;;;;;;;;;;;;;;2.30;nan;100413.56;5043837;28;19925;-87
2022/01/10 05:31:44;;;;;;;;;;;;;;;2.21;nan;100426.38;5027273;28;19948;-86
2022/01/10 05:34:09;;;;;;;;;;;;;;;2.18;nan;100423.97;5028398;28;19921;-85
2022/01/10 05:36:34;;;;;;;;;;;;;;;2.15;nan;100434.63;5037858;28;19955;-86
2022/01/10 05:39:00;;;;;;;;;;;;;;;2.14;nan;100446.81;5037892;28;19944;-85
2022/01/10 05:41:25;;;;;;;;;;;;;;;2.12;nan;100446.06;5037993;28;19918;-85
2022/01/10 05:43:50;;;;;;;;;;;;;;;2.12;nan;100452.16;5037515;28;19951;-85
2022/01/10 05:46:18;;;;;;;;;;;;;;;2.13;nan;100453.81;5035853;28;19921;-85
2022/01/10 05:48:47;;;;;;;;;;;;;;;2.17;nan;100457.06;5020950;28;20326;-85
2022/01/10 05:51:13;;;;;;;;;;;;;;;2.22;nan;100465.44;5020880;28;20028;-86
2022/01/10 05:53:38;;;;;;;;;;;;;;;2.23;nan;100468.88;5018056;28;19945;-86
2022/01/10 05:56:03;;;;;;;;;;;;;;;2.13;nan;100482.50;5024419;28;19964;-86
2022/01/10 05:58:29;;;;;;;;;;;;;;;2.07;nan;100482.03;5038065;28;19959;-84
2022/01/10 06:00:54;;;;;;;;;;;;;;;2.04;nan;100490.91;5027770;28;19920;-86
2022/01/10 06:03:19;;;;;;;;;;;;;;;2.05;nan;100496.94;5021530;28;19929;-85
2022/01/10 06:05:44;;;;;;;;;;;;;;;2.08;nan;100495.00;5022778;28;20003;-86
2022/01/10 06:08:09;;;;;;;;;;;;;;;2.11;nan;100497.41;5037271;28;19921;-85
2022/01/10 06:10:36;;;;;;;;;;;;;;;2.08;nan;100502.81;5037674;28;20294;-85
2022/01/10 06:13:01;;;;;;;;;;;;;;;2.07;nan;100510.72;5027775;28;19921;-85
2022/01/10 06:15:27;;;;;;;;;;;;;;;2.06;nan;100507.28;5035136;28;19924;-86
2022/01/10 06:17:52;;;;;;;;;;;;;;;2.02;nan;100511.03;5033037;28;19949;-85
2022/01/10 06:20:18;;;;;;;;;;;;;;;2.05;nan;100510.84;5016349;28;19949;-85
2022/01/10 06:22:44;;;;;;;;;;;;;;;2.02;nan;100516.25;5031387;28;19928;-86
2022/01/10 06:25:10;;;;;;;;;;;;;;;2.00;nan;100517.28;5037515;28;19928;-84
2022/01/10 06:27:36;;;;;;;;;;;;;;;1.98;nan;100529.56;5038677;28;20000;-86
2022/01/10 06:30:01;;;;;;;;;;;;;;;1.90;nan;100527.44;5031080;28;20387;-86
2022/01/10 06:32:26;;;;;;;;;;;;;;;1.86;nan;100545.06;5038465;28;20291;-86
2022/01/10 06:34:52;;;;;;;;;;;;;;;1.89;nan;100542.25;5031428;28;19921;-86
2022/01/10 06:37:18;;;;;;;;;;;;;;;1.88;nan;100558.00;5019669;28;19917;-86
2022/01/10 06:39:43;;;;;;;;;;;;;;;1.84;nan;100557.38;5027570;28;20721;-85
2022/01/10 06:42:09;;;;;;;;;;;;;;;1.85;nan;100559.03;5035994;28;19921;-83
2022/01/10 06:44:34;;;;;;;;;;;;;;;1.82;nan;100564.44;5035515;28;19943;-84
2022/01/10 06:46:59;;;;;;;;;;;;;;;1.78;nan;100572.53;5034481;28;19992;-85
2022/01/10 06:49:25;;;;;;;;;;;;;;;1.81;nan;100583.63;5015883;28;20000;-85
2022/01/10 06:51:50;;;;;;;;;;;;;;;1.85;nan;100579.88;5029860;28;20277;-86
2022/01/10 06:54:15;;;;;;;;;;;;;;;1.86;nan;100586.78;5037142;28;19928;-85
2022/01/10 06:56:41;;;;;;;;;;;;;;;1.86;nan;100594.63;5036915;28;19928;-85
2022/01/10 06:59:06;;;;;;;;;;;;;;;1.82;nan;100600.94;5038406;28;19921;-86
2022/01/10 07:01:31;;;;;;;;;;;;;;;1.82;nan;100600.09;5035026;28;19924;-85
2022/01/10 07:03:57;;;;;;;;;;;;;;;1.80;nan;100615.84;5041735;28;19932;-85
2022/01/10 07:06:22;;;;;;;;;;;;;;;1.82;nan;100615.75;5035069;28;19917;-85
2022/01/10 07:08:48;;;;;;;;;;;;;;;1.85;nan;100620.78;5036665;28;19922;-85
2022/01/10 07:11:13;;;;;;;;;;;;;;;1.84;nan;100632.16;5034990;28;19924;-85
2022/01/10 07:13:38;;;;;;;;;;;;;;;1.85;nan;100632.03;5035055;28;20016;-85
2022/01/10 07:16:03;;;;;;;;;;;;;;;1.90;nan;100635.19;5034901;28;20278;-86
2022/01/10 07:18:28;;;;;;;;;;;;;;;1.89;nan;100637.91;5036996;28;19929;-85
2022/01/10 07:20:54;;;;;;;;;;;;;;;1.88;nan;100646.66;5035077;28;20000;-85
2022/01/10 07:23:19;;;;;;;;;;;;;;;1.89;nan;100649.19;5034835;28;19921;-86
2022/01/10 07:25:44;;;;;;;;;;;;;;;1.92;nan;100661.19;5034619;28;19927;-85
2022/01/10 07:28:09;;;;;;;;;;;;;;;1.94;nan;100663.72;5018209;28;19917;-84
2022/01/10 07:30:35;;;;;;;;;;;;;;;1.93;nan;100668.06;5030986;28;19922;-85
2022/01/10 07:33:00;;;;;;;;;;;;;;;1.95;nan;100678.41;5037415;28;19917;-86
2022/01/10 07:35:25;;;;;;;;;;;;;;;1.93;nan;100681.09;5036038;28;20438;-85
2022/01/10 07:37:51;;;;;;;;;;;;;;;1.94;nan;100695.00;5036338;28;19924;-85
2022/01/10 07:40:16;;;;;;;;;;;;;;;1.93;nan;100699.34;5038238;28;19927;-86
2022/01/10 07:42:41;;;;;;;;;;;;;;;1.92;nan;100701.13;5039257;28;19996;-86
2022/01/10 07:45:06;;;;;;;;;;;;;;;1.92;nan;100703.75;5039642;28;19949;-85
2022/01/10 07:47:33;;;;;;;;;;;;;;;1.87;nan;100710.16;5034357;28;19964;-85
2022/01/10 07:49:58;;;;;;;;;;;;;;;1.84;nan;100720.78;5028200;28;19925;-86
2022/01/10 07:52:25;;;;;;;;;;;;;;;1.85;nan;100723.28;5035322;28;19924;-85
2022/01/10 07:54:50;;;;;;;;;;;;;;;1.93;nan;100720.22;5035151;28;19955;-86
2022/01/10 07:57:15;;;;;;;;;;;;;;;1.92;nan;100727.22;5034323;28;20342;-85
2022/01/10 07:59:41;;;;;;;;;;;;;;;1.95;nan;100725.34;5033267;28;19964;-85
2022/01/10 08:02:07;;;;;;;;;;;;;;;1.85;nan;100732.88;5032869;28;19928;-86
2022/01/10 08:04:32;;;;;;;;;;;;;;;1.84;nan;100736.44;5033501;28;20190;-84
2022/01/10 08:06:58;;;;;;;;;;;;;;;1.79;nan;100735.84;5034510;28;20027;-86
2022/01/10 08:09:23;;;;;;;;;;;;;;;1.90;nan;100741.28;5034701;28;19929;-84
2022/01/10 08:11:48;;;;;;;;;;;;;;;1.95;nan;100736.63;5034225;28;19966;-85
2022/01/10 08:14:13;;;;;;;;;;;;;;;1.98;nan;100748.63;5033347;28;20382;-85
2022/01/10 08:16:38;;;;;;;;;;;;;;;1.93;nan;100751.50;5033056;28;19921;-86
2022/01/10 08:19:04;;;;;;;;;;;;;;;1.95;nan;100757.47;5034227;28;20031;-85
2022/01/10 08:21:29;;;;;;;;;;;;;;;1.99;nan;100764.19;5032998;28;19957;-85
2022/01/10 08:23:54;;;;;;;;;;;;;;;2.08;nan;100768.03;5032734;28;19983;-85
2022/01/10 08:26:20;;;;;;;;;;;;;;;2.01;nan;100778.00;5032054;28;19924;-85
2022/01/10 08:28:46;;;;;;;;;;;;;;;2.01;nan;100774.56;5012975;28;19921;-86
2022/01/10 08:31:11;;;;;;;;;;;;;;;2.06;nan;100781.16;5034404;28;20301;-85
2022/01/10 08:33:37;;;;;;;;;;;;;;;2.14;nan;100785.91;5034601;28;19989;-85
2022/01/10 08:36:02;;;;;;;;;;;;;;;2.23;nan;100782.75;5033317;28;19931;-87
2022/01/10 08:38:27;;;;;;;;;;;;;;;2.30;nan;100796.28;5033155;28;19983;-85
2022/01/10 08:40:52;;;;;;;;;;;;;;;2.37;nan;100791.53;5033617;28;19918;-85
2022/01/10 08:43:18;;;;;;;;;;;;;;;2.33;nan;100798.72;5031858;28;19943;-85
2022/01/10 08:45:44;;;;;;;;;;;;;;;2.33;nan;100804.75;5032359;28;19924;-85
2022/01/10 08:48:10;;;;;;;;;;;;;;;2.41;nan;100809.53;5027658;28;19936;-85
2022/01/10 08:50:35;;;;;;;;;;;;;;;2.43;nan;100809.44;5034909;28;19927;-84
2022/01/10 08:53:02;;;;;;;;;;;;;;;2.55;nan;100812.16;5037086;28;19943;-86
2022/01/10 08:55:27;;;;;;;;;;;;;;;2.60;nan;100822.31;5036792;28;20362;-84
2022/01/10 08:57:53;;;;;;;;;;;;;;;2.65;nan;100822.88;5037079;28;19921;-85
2022/01/10 09:00:20;;;;;;;;;;;;;;;2.74;nan;100824.94;5032908;28;21752;-84
2022/01/10 09:02:45;;;;;;;;;;;;;;;2.79;nan;100836.84;5017513;28;19921;-85
2022/01/10 09:05:10;;;;;;;;;;;;;;;2.85;nan;100831.25;5019614;28;19933;-84
2022/01/10 09:07:35;;;;;;;;;;;;;;;2.73;nan;100841.50;5037573;28;20363;-86
2022/01/10 09:10:01;;;;;;;;;;;;;;;2.80;nan;100843.75;5037753;28;19928;-85
2022/01/10 09:12:26;;;;;;;;;;;;;;;2.90;nan;100839.63;5037207;28;19917;-85
2022/01/10 09:14:51;;;;;;;;;;;;;;;2.94;nan;100851.59;5038282;28;19921;-84
2022/01/10 09:17:17;;;;;;;;;;;;;;;2.89;nan;100849.25;5037765;28;20533;-84
2022/01/10 09:19:42;;;;;;;;;;;;;;;2.91;nan;100854.41;5038395;28;20315;-84
2022/01/10 09:22:07;;;;;;;;;;;;;;;3.07;nan;100859.50;5038225;28;19999;-85
2022/01/10 09:24:32;;;;;;;;;;;;;;;3.04;nan;100863.13;5036754;28;19948;-85
2022/01/10 09:26:58;;;;;;;;;;;;;;;3.11;nan;100871.44;5032354;28;19989;-85
2022/01/10 09:29:23;;;;;;;;;;;;;;;3.34;nan;100875.25;5035621;28;19921;-85
2022/01/10 09:31:49;;;;;;;;;;;;;;;3.41;nan;100876.53;5036661;28;19917;-86
2022/01/10 09:34:14;;;;;;;;;;;;;;;3.54;nan;100873.97;5035391;28;19952;-85
2022/01/10 09:36:39;;;;;;;;;;;;;;;3.66;nan;100881.00;5034868;28;19928;-85
2022/01/10 09:39:05;;;;;;;;;;;;;;;3.65;nan;100888.94;5035519;28;19917;-86
2022/01/10 09:41:30;;;;;;;;;;;;;;;3.67;nan;100890.56;5037118;28;20397;-85
2022/01/10 09:43:57;;;;;;;;;;;;;;;3.64;nan;100895.13;5037114;28;19921;-85
2022/01/10 09:46:23;;;;;;;;;;;;;;;3.58;nan;100891.97;5037767;28;19917;-85
2022/01/10 09:48:48;;;;;;;;;;;;;;;3.67;nan;100894.94;5040300;28;19921;-85
2022/01/10 09:51:14;;;;;;;;;;;;;;;3.77;nan;100898.66;5041335;28;19952;-85
2022/01/10 09:53:39;;;;;;;;;;;;;;;3.70;nan;100898.19;5044627;28;20026;-87
2022/01/10 09:56:04;;;;;;;;;;;;;;;3.72;nan;100901.56;5022739;28;19980;-84
2022/01/10 09:58:30;;;;;;;;;;;;;;;3.59;nan;100904.09;5021833;28;19917;-86
2022/01/10 10:00:56;;;;;;;;;;;;;;;3.48;nan;100901.34;5024497;28;19944;-85
2022/01/10 10:03:22;;;;;;;;;;;;;;;3.63;nan;100903.94;5019969;28;20411;-85
2022/01/10 10:05:51;;;;;;;;;;;;;;;3.69;nan;100906.13;5020662;28;19949;-86
2022/01/10 10:08:16;;;;;;;;;;;;;;;3.75;nan;100913.59;5021378;28;19921;-85
2022/01/10 10:10:41;;;;;;;;;;;;;;;3.59;nan;100914.56;5019351;28;19994;-85
2022/01/10 10:13:06;;;;;;;;;;;;;;;3.59;nan;100921.56;5021267;28;19972;-85
2022/01/10 10:15:35;;;;;;;;;;;;;;;3.59;nan;100925.00;5019110;28;20364;-85
2022/01/10 10:18:08;;;;;;;;;;;;;;;3.65;nan;100923.81;5020865;28;19917;-86
2022/01/10 10:20:33;;;;;;;;;;;;;;;3.61;nan;100928.38;5034503;28;20379;-84
2022/01/10 10:22:58;;;;;;;;;;;;;;;3.38;nan;100935.06;5038941;28;19959;-86
2022/01/10 10:25:23;;;;;;;;;;;;;;;3.42;nan;100940.94;5039170;28;19917;-84
2022/01/10 10:27:49;;;;;;;;;;;;;;;3.46;nan;100939.81;5039195;28;19928;-86
2022/01/10 10:30:22;;;;;;;;;;;;;;;3.50;nan;100948.28;5037232;28;19929;-86
2022/01/10 10:32:50;;;;;;;;;;;;;;;3.40;nan;100951.47;5041671;28;19924;-87
2022/01/10 10:35:16;;;;;;;;;;;;;;;3.39;nan;100955.03;5042981;28;19921;-86
2022/01/10 10:37:43;;;;;;;;;;;;;;;3.38;nan;100948.13;5041102;28;19992;-86
2022/01/10 10:40:10;;;;;;;;;;;;;;;3.40;nan;100950.63;5041895;28;19917;-85
2022/01/10 10:42:37;;;;;;;;;;;;;;;3.30;nan;100960.81;5036969;28;19917;-85
2022/01/10 10:45:04;;;;;;;;;;;;;;;3.34;nan;100969.34;5035660;28;20478;-85
2022/01/10 10:47:29;;;;;;;;;;;;;;;3.42;nan;100966.25;5033260;28;19924;-85
2022/01/10 10:49:58;;;;;;;;;;;;;;;3.46;nan;100971.19;5050044;28;20414;-85
2022/01/10 10:52:29;;;;;;;;;;;;;;;3.54;nan;100968.91;5032225;28;19957;-85
2022/01/10 10:54:55;;;;;;;;;;;;;;;3.67;nan;100976.84;5033171;28;19917;-85
2022/01/10 10:57:21;;;;;;;;;;;;;;;3.79;nan;100980.44;5030460;28;19917;-85
2022/01/10 10:59:47;;;;;;;;;;;;;;;3.79;nan;100985.69;5031089;28;19921;-85
2022/01/10 11:02:12;;;;;;;;;;;;;;;3.86;nan;100981.75;5030062;28;19917;-86
2022/01/10 11:04:37;;;;;;;;;;;;;;;3.91;nan;100984.94;5035126;28;20007;-85
2022/01/10 11:07:03;;;;;;;;;;;;;;;3.88;nan;100992.94;5033511;28;19996;-84
2022/01/10 11:09:28;;;;;;;;;;;;;;;3.96;nan;100992.50;5032916;28;20410;-84
2022/01/10 11:11:53;;;;;;;;;;;;;;;3.94;nan;100996.97;5034660;28;19917;-85
2022/01/10 11:14:22;;;;;;;;;;;;;;;4.02;nan;101002.53;5034141;28;19921;-85
2022/01/10 11:16:49;;;;;;;;;;;;;;;4.08;nan;101006.56;5033152;28;20005;-85
2022/01/10 11:19:22;;;;;;;;;;;;;;;4.16;nan;100999.88;5035431;28;20287;-85
2022/01/10 11:21:53;;;;;;;;;;;;;;;4.20;nan;101013.63;5034268;28;20353;-85
2022/01/10 11:24:38;;;;;;;;;;;;;;;4.27;nan;101007.06;5033925;28;19921;-85
2022/01/10 11:27:08;;;;;;;;;;;;;;;4.36;nan;101010.84;5026884;28;19925;-85
2022/01/10 11:29:39;;;;;;;;;;;;;;;4.41;nan;101017.47;5019002;28;20377;-85
2022/01/10 11:32:06;;;;;;;;;;;;;;;4.48;nan;101015.28;5032623;28;19939;-85
2022/01/10 11:34:32;;;;;;;;;;;;;;;4.48;nan;101017.88;5033558;28;19921;-84
2022/01/10 11:36:57;;;;;;;;;;;;;;;4.53;nan;101017.59;5034204;28;20393;-85
2022/01/10 11:39:34;;;;;;;;;;;;;;;4.63;nan;101027.38;5034300;28;19917;-85
2022/01/10 11:42:01;;;;;;;;;;;;;;;4.68;nan;101021.84;5032064;28;20052;-85
2022/01/10 11:44:26;;;;;;;;;;;;;;;4.53;nan;101020.22;5032168;28;19924;-85
2022/01/10 11:46:51;;;;;;;;;;;;;;;4.67;nan;101028.88;5031282;28;19921;-84
2022/01/10 11:49:18;;;;;;;;;;;;;;;4.68;nan;101027.91;5012291;28;19940;-85
2022/01/10 11:51:49;;;;;;;;;;;;;;;4.73;nan;101034.63;5018642;28;19928;-84
2022/01/10 11:54:15;;;;;;;;;;;;;;;4.94;nan;101030.59;5031901;28;20349;-84
2022/01/10 11:56:48;;;;;;;;;;;;;;;5.00;nan;101032.78;5034078;28;19917;-84
2022/01/10 11:59:17;;;;;;;;;;;;;;;5.08;nan;101038.34;5033966;28;20337;-85
2022/01/10 12:01:47;;;;;;;;;;;;;;;5.24;nan;101040.78;5022011;28;19917;-85
2022/01/10 12:04:13;;;;;;;;;;;;;;;5.45;nan;101045.47;5031348;28;19936;-85
2022/01/10 12:06:38;;;;;;;;;;;;;;;5.51;nan;101051.16;5032770;28;20290;-84
2022/01/10 12:09:04;;;;;;;;;;;;;;;5.57;nan;101052.50;5033815;28;20379;-85
2022/01/10 12:11:30;;;;;;;;;;;;;;;5.70;nan;101047.25;5031650;28;20366;-85
2022/01/10 12:13:56;;;;;;;;;;;;;;;5.69;nan;101038.50;5034010;28;19921;-85
2022/01/10 12:16:21;;;;;;;;;;;;;;;5.61;nan;101050.50;5033361;28;19940;-85
2022/01/10 12:18:47;;;;;;;;;;;;;;;5.60;nan;101060.16;5032958;28;19917;-83
2022/01/10 12:21:13;;;;;;;;;;;;;;;5.62;nan;101063.50;5034548;28;19936;-85
2022/01/10 12:23:39;;;;;;;;;;;;;;;5.75;nan;101061.72;5034074;28;19921;-84
2022/01/10 12:26:04;;;;;;;;;;;;;;;5.91;nan;101069.34;5032605;28;19927;-86
2022/01/10 12:28:29;;;;;;;;;;;;;;;6.07;nan;101070.91;5032134;28;19988;-85
2022/01/10 12:30:57;;;;;;;;;;;;;;;5.96;nan;101074.31;5034264;28;19921;-85
2022/01/10 12:33:22;;;;;;;;;;;;;;;5.85;nan;101076.81;5018204;28;20077;-84
2022/01/10 12:35:47;;;;;;;;;;;;;;;5.64;nan;101090.47;5038836;28;20278;-84
2022/01/10 12:38:12;;;;;;;;;;;;;;;5.59;nan;101089.13;5015360;28;19917;-85
2022/01/10 12:40:38;;;;;;;;;;;;;;;5.60;nan;101096.91;5014349;28;19953;-85
2022/01/10 12:43:03;;;;;;;;;;;;;;;5.68;nan;101097.19;5014472;28;20075;-84
2022/01/10 12:45:33;;;;;;;;;;;;;;;5.66;nan;101109.56;5014280;28;19924;-85
2022/01/10 12:47:58;;;;;;;;;;;;;;;5.78;nan;101104.44;5035812;28;20409;-84
2022/01/10 12:50:25;;;;;;;;;;;;;;;5.86;nan;101105.56;5012582;28;19926;-85
2022/01/10 12:52:52;;;;;;;;;;;;;;;5.77;nan;101110.63;5013651;28;19921;-84
2022/01/10 12:55:17;;;;;;;;;;;;;;;5.66;nan;101108.75;5014209;28;19918;-85
2022/01/10 12:57:43;;;;;;;;;;;;;;;5.75;nan;101108.94;5013880;28;20361;-85
2022/01/10 13:00:08;;;;;;;;;;;;;;;5.71;nan;101117.13;5012356;28;19964;-86
2022/01/10 13:02:34;;;;;;;;;;;;;;;5.62;nan;101117.75;5013786;28;19944;-85
2022/01/10 13:05:04;;;;;;;;;;;;;;;5.55;nan;101117.34;5013732;28;19918;-85